Time;durP1;ratioP1;P1;durP2;ratioP2;P2;SDS_P1;SDS_P2;PMS_P1;PMS_P2;Temp;Humidity;BMP_temperature;BMP_pressure;BME280_temperature;BME280_humidity;BME280_pressure;Samples;Min_cycle;Max_cycle;Signal;HPM_P1;HPM_P2
2021/06/08 00:01:51;;;;;;;0.90;0.90;;;16.00;68.00;;;;;;5033014;28;20025;-74
2021/06/08 00:04:16;;;;;;;0.63;0.63;;;15.90;68.00;;;;;;5032613;28;20540;-73
2021/06/08 00:06:42;;;;;;;0.75;0.75;;;15.90;68.00;;;;;;5032891;28;20044;-73
2021/06/08 00:09:08;;;;;;;0.47;0.47;;;15.90;68.10;;;;;;5033186;28;20095;-73
2021/06/08 00:11:33;;;;;;;0.70;0.70;;;15.90;68.20;;;;;;5032907;28;20071;-73
2021/06/08 00:13:59;;;;;;;0.70;0.70;;;15.90;68.10;;;;;;5015138;28;20018;-73
2021/06/08 00:16:24;;;;;;;0.65;0.65;;;15.80;68.10;;;;;;5015294;28;20021;-74
2021/06/08 00:18:50;;;;;;;0.68;0.68;;;15.80;68.10;;;;;;5032578;28;20029;-73
2021/06/08 00:21:16;;;;;;;2.05;0.73;;;15.80;68.20;;;;;;5032959;28;20029;-74
2021/06/08 00:23:41;;;;;;;0.60;0.60;;;15.80;68.20;;;;;;5032558;28;20531;-73
2021/06/08 00:26:07;;;;;;;0.75;0.75;;;15.80;68.20;;;;;;5032636;28;20030;-74
2021/06/08 00:28:33;;;;;;;0.63;0.63;;;15.70;68.20;;;;;;5032896;28;20021;-73
2021/06/08 00:30:58;;;;;;;0.95;0.80;;;15.70;68.20;;;;;;5032700;28;20060;-73
2021/06/08 00:33:24;;;;;;;0.70;0.70;;;15.70;68.30;;;;;;5014641;28;20104;-73
2021/06/08 00:35:49;;;;;;;0.93;0.80;;;15.70;68.30;;;;;;5032509;28;20367;-73
2021/06/08 00:38:15;;;;;;;0.95;0.85;;;15.70;68.40;;;;;;5032694;28;20489;-74
2021/06/08 00:40:45;;;;;;;0.82;0.80;;;15.70;68.50;;;;;;5032699;28;20032;-73
2021/06/08 00:43:11;;;;;;;1.75;1.65;;;15.70;68.60;;;;;;5014966;28;20027;-73
2021/06/08 00:45:37;;;;;;;1.30;0.98;;;15.60;68.70;;;;;;5032552;28;20463;-73
2021/06/08 00:48:03;;;;;;;1.15;1.05;;;15.60;68.70;;;;;;5032089;28;20087;-73
2021/06/08 00:50:28;;;;;;;1.10;1.00;;;15.60;68.70;;;;;;5032790;28;20053;-73
2021/06/08 00:52:54;;;;;;;2.10;1.50;;;15.60;68.80;;;;;;5032605;28;20418;-73
2021/06/08 00:55:20;;;;;;;1.23;1.08;;;15.60;68.80;;;;;;5032363;28;20474;-73
2021/06/08 00:57:47;;;;;;;1.00;0.90;;;15.60;68.80;;;;;;5032406;28;20033;-72
2021/06/08 01:00:13;;;;;;;1.30;1.20;;;15.60;68.90;;;;;;5032409;28;20018;-74
2021/06/08 01:02:38;;;;;;;0.98;0.80;;;15.60;68.90;;;;;;5035278;28;20075;-74
2021/06/08 01:05:06;;;;;;;1.00;1.00;;;15.60;69.00;;;;;;5018210;28;20017;-74
2021/06/08 01:07:33;;;;;;;0.90;0.90;;;15.50;69.00;;;;;;5036207;28;20029;-73
2021/06/08 01:10:00;;;;;;;0.80;0.80;;;15.50;69.00;;;;;;5018153;28;20031;-73
2021/06/08 01:12:26;;;;;;;0.98;0.93;;;15.50;69.00;;;;;;5035956;28;20430;-73
2021/06/08 01:14:52;;;;;;;1.27;1.00;;;15.40;69.00;;;;;;5035953;28;20025;-73
2021/06/08 01:17:18;;;;;;;1.00;0.90;;;15.40;69.10;;;;;;5035384;28;20025;-74
2021/06/08 01:19:45;;;;;;;0.93;0.82;;;15.40;69.20;;;;;;5017998;28;20497;-72
2021/06/08 01:22:14;;;;;;;1.40;1.13;;;15.30;69.20;;;;;;5035928;28;20025;-73
2021/06/08 01:24:40;;;;;;;0.80;0.80;;;15.30;69.30;;;;;;5035565;28;20041;-73
2021/06/08 01:27:07;;;;;;;1.00;1.00;;;15.30;69.30;;;;;;5017817;28;20303;-74
2021/06/08 01:29:34;;;;;;;0.90;0.90;;;15.30;69.40;;;;;;5017982;28;20480;-74
2021/06/08 01:32:03;;;;;;;1.63;0.93;;;15.30;69.40;;;;;;5035144;28;20028;-73
2021/06/08 01:34:29;;;;;;;1.10;1.00;;;15.30;69.40;;;;;;5035580;28;20109;-73
2021/06/08 01:36:55;;;;;;;0.95;0.95;;;15.30;69.40;;;;;;5035528;28;20057;-74
2021/06/08 01:39:21;;;;;;;1.20;1.10;;;15.30;69.50;;;;;;5035407;28;20025;-73
2021/06/08 01:41:47;;;;;;;0.77;0.77;;;15.20;69.40;;;;;;5017526;28;20112;-74
2021/06/08 01:44:13;;;;;;;1.25;1.15;;;15.20;69.40;;;;;;5017549;28;20036;-74
2021/06/08 01:46:39;;;;;;;1.38;1.25;;;15.20;69.60;;;;;;5034882;28;20030;-74
2021/06/08 01:49:04;;;;;;;1.70;1.17;;;15.20;69.60;;;;;;5035233;28;20029;-74
2021/06/08 01:51:58;;;;;;;0.70;0.70;;;15.20;69.70;;;;;;5035123;28;20025;-73
2021/06/08 01:54:43;;;;;;;1.10;1.00;;;15.10;69.80;;;;;;5035340;28;20091;-74
2021/06/08 01:57:13;;;;;;;1.08;0.98;;;15.00;69.90;;;;;;5017459;28;20025;-72
2021/06/08 01:59:50;;;;;;;2.70;1.33;;;15.00;70.10;;;;;;5034950;28;20471;-74
2021/06/08 02:02:26;;;;;;;1.50;1.38;;;15.00;70.10;;;;;;5034978;28;20389;-73
2021/06/08 02:05:01;;;;;;;1.20;1.10;;;14.90;70.10;;;;;;5035128;28;20101;-73
2021/06/08 02:07:40;;;;;;;1.50;1.40;;;14.90;70.20;;;;;;5034765;28;20033;-73
2021/06/08 02:10:26;;;;;;;1.35;1.17;;;14.90;70.30;;;;;;5034982;28;20056;-73
2021/06/08 02:13:01;;;;;;;1.33;1.13;;;14.90;70.40;;;;;;5034064;28;20037;-74
2021/06/08 02:15:32;;;;;;;1.33;1.05;;;14.80;70.40;;;;;;5034367;28;20017;-74
2021/06/08 02:17:58;;;;;;;1.20;1.10;;;14.80;70.50;;;;;;5034740;28;20547;-74
2021/06/08 02:20:33;;;;;;;1.63;1.50;;;14.80;70.50;;;;;;5034662;28;20033;-74
2021/06/08 02:23:02;;;;;;;1.75;1.25;;;14.80;70.50;;;;;;5016834;28;20017;-73
2021/06/08 02:25:29;;;;;;;1.20;1.10;;;14.80;70.50;;;;;;5034417;28;20510;-74
2021/06/08 02:27:58;;;;;;;1.58;1.33;;;14.70;70.50;;;;;;5016804;28;20041;-74
2021/06/08 02:30:24;;;;;;;0.82;0.82;;;14.70;70.60;;;;;;5034057;28;20055;-73
2021/06/08 02:32:53;;;;;;;1.35;1.20;;;14.70;70.70;;;;;;5016690;28;20018;-74
2021/06/08 02:35:21;;;;;;;1.30;1.20;;;14.60;70.60;;;;;;5034344;28;20105;-74
2021/06/08 02:37:49;;;;;;;1.93;1.33;;;14.60;70.60;;;;;;5016607;28;20347;-73
2021/06/08 02:40:15;;;;;;;1.60;1.35;;;14.60;70.70;;;;;;5034452;28;20028;-73
2021/06/08 02:42:42;;;;;;;1.30;1.20;;;14.60;71.50;;;;;;5034135;28;20497;-73
2021/06/08 02:45:08;;;;;;;1.15;1.13;;;14.60;70.90;;;;;;5016150;28;20466;-73
2021/06/08 02:47:35;;;;;;;1.38;1.10;;;14.60;70.90;;;;;;5034010;28;20112;-73
2021/06/08 02:50:02;;;;;;;1.98;1.33;;;14.50;70.90;;;;;;5034080;28;20025;-73
2021/06/08 02:52:28;;;;;;;1.30;1.20;;;14.50;70.90;;;;;;5016338;28;20026;-73
2021/06/08 02:54:55;;;;;;;1.38;1.23;;;14.50;71.10;;;;;;5034071;28;20071;-73
2021/06/08 02:57:22;;;;;;;1.70;1.60;;;14.40;71.10;;;;;;5034097;28;20025;-74
2021/06/08 02:59:50;;;;;;;1.33;1.23;;;14.40;71.20;;;;;;5033472;28;20021;-73
2021/06/08 03:02:18;;;;;;;1.35;1.23;;;14.40;71.20;;;;;;5033870;28;20021;-73
2021/06/08 03:04:50;;;;;;;1.80;1.55;;;14.40;71.20;;;;;;5033712;28;20064;-73
2021/06/08 03:07:18;;;;;;;2.22;1.42;;;14.40;71.20;;;;;;5033668;28;20037;-73
2021/06/08 03:09:53;;;;;;;2.22;1.58;;;14.40;71.20;;;;;;5015980;28;20386;-74
2021/06/08 03:12:27;;;;;;;1.52;1.27;;;14.40;71.30;;;;;;5015625;28;20044;-76
2021/06/08 03:14:53;;;;;;;2.05;1.77;;;14.40;71.30;;;;;;5015828;28;20363;-73
2021/06/08 03:17:24;;;;;;;2.47;1.50;;;14.30;71.30;;;;;;5033629;28;20104;-74
2021/06/08 03:19:50;;;;;;;1.58;1.38;;;14.30;71.40;;;;;;5033648;28;20025;-73
2021/06/08 03:22:19;;;;;;;1.67;1.30;;;14.30;71.40;;;;;;5033592;28;20029;-74
2021/06/08 03:24:48;;;;;;;1.35;1.17;;;14.30;71.40;;;;;;5031097;28;20072;-74
2021/06/08 03:27:15;;;;;;;1.90;1.60;;;14.20;72.10;;;;;;5033048;28;20037;-73
2021/06/08 03:29:42;;;;;;;1.42;1.33;;;14.20;71.50;;;;;;5015727;28;20609;-73
2021/06/08 03:32:08;;;;;;;1.45;1.35;;;14.20;71.70;;;;;;5015774;28;20025;-72
2021/06/08 03:34:36;;;;;;;1.77;1.48;;;14.20;72.30;;;;;;5033584;28;20087;-73
2021/06/08 03:37:02;;;;;;;1.33;1.05;;;14.20;71.80;;;;;;5015611;28;20032;-74
2021/06/08 03:39:29;;;;;;;1.45;1.35;;;14.10;71.80;;;;;;5015676;28;20072;-73
2021/06/08 03:41:56;;;;;;;1.42;1.30;;;14.10;71.80;;;;;;5015059;28;20030;-74
2021/06/08 03:44:22;;;;;;;1.42;1.33;;;14.10;71.80;;;;;;5015453;28;20034;-73
2021/06/08 03:46:49;;;;;;;1.40;1.30;;;14.10;71.90;;;;;;5033207;28;20021;-73
2021/06/08 03:49:17;;;;;;;1.60;1.38;;;14.10;71.90;;;;;;5033209;28;20049;-74
2021/06/08 03:51:43;;;;;;;2.08;1.70;;;14.10;71.90;;;;;;5033227;28;20509;-74
2021/06/08 03:54:10;;;;;;;1.80;1.40;;;14.10;72.00;;;;;;5033265;28;20049;-74
2021/06/08 03:56:48;;;;;;;1.40;1.30;;;14.10;72.10;;;;;;5032559;28;20029;-73
2021/06/08 03:59:15;;;;;;;1.70;1.50;;;14.10;72.10;;;;;;5033167;28;20051;-73
2021/06/08 04:01:42;;;;;;;1.30;1.20;;;14.10;72.10;;;;;;5032985;28;20171;-73
2021/06/08 04:04:08;;;;;;;2.05;1.85;;;14.10;72.10;;;;;;5032991;28;20021;-74
2021/06/08 04:06:34;;;;;;;1.73;1.48;;;14.20;72.10;;;;;;5032887;28;20033;-74
2021/06/08 04:09:08;;;;;;;1.15;1.05;;;14.20;72.10;;;;;;5033006;28;20109;-73
2021/06/08 04:11:36;;;;;;;1.30;1.20;;;14.30;72.00;;;;;;5032584;28;20393;-73
2021/06/08 04:14:02;;;;;;;1.23;1.13;;;14.30;72.00;;;;;;5032906;28;20044;-74
2021/06/08 04:16:28;;;;;;;2.08;1.60;;;14.30;71.90;;;;;;5033049;28;20033;-74
2021/06/08 04:18:53;;;;;;;1.33;1.05;;;14.30;71.80;;;;;;5032826;28;20382;-73
2021/06/08 04:21:24;;;;;;;1.55;1.20;;;14.30;71.90;;;;;;5032964;28;20025;-74
2021/06/08 04:23:58;;;;;;;1.40;1.30;;;14.40;71.90;;;;;;5032812;28;20101;-74
2021/06/08 04:26:28;;;;;;;2.15;1.50;;;14.40;71.80;;;;;;5032278;28;20046;-73
2021/06/08 04:28:54;;;;;;;1.33;1.23;;;14.40;71.70;;;;;;5032808;28;20101;-73
2021/06/08 04:31:23;;;;;;;1.35;1.25;;;14.40;71.70;;;;;;5015154;28;20095;-73
2021/06/08 04:33:49;;;;;;;1.60;1.50;;;14.50;71.70;;;;;;5015062;28;20478;-73
2021/06/08 04:36:15;;;;;;;1.48;1.25;;;14.50;71.70;;;;;;5016087;28;20029;-73
2021/06/08 04:38:44;;;;;;;1.15;1.02;;;14.60;71.70;;;;;;5036714;28;20025;-72
2021/06/08 04:41:10;;;;;;;1.30;1.20;;;14.60;71.70;;;;;;5018222;28;20029;-73
2021/06/08 04:43:36;;;;;;;1.50;1.35;;;14.60;71.60;;;;;;5036680;28;20056;-74
2021/06/08 04:46:06;;;;;;;3.47;1.35;;;14.60;71.60;;;;;;5036527;28;20049;-73
2021/06/08 04:48:33;;;;;;;1.08;0.88;;;14.60;71.60;;;;;;5036559;28;20034;-72
2021/06/08 04:50:59;;;;;;;1.27;1.17;;;14.70;71.70;;;;;;5036263;28;20080;-73
2021/06/08 04:53:25;;;;;;;0.80;0.80;;;14.70;71.60;;;;;;5036316;28;20060;-73
2021/06/08 04:55:52;;;;;;;1.02;0.98;;;14.70;71.60;;;;;;5035956;28;20049;-73
2021/06/08 04:58:19;;;;;;;0.90;0.90;;;14.70;71.60;;;;;;5036367;28;20087;-73
2021/06/08 05:00:56;;;;;;;0.75;0.75;;;14.80;71.60;;;;;;5036257;28;20022;-74
2021/06/08 05:03:25;;;;;;;1.10;1.00;;;14.80;71.60;;;;;;5035960;28;20030;-74
2021/06/08 05:05:53;;;;;;;1.60;1.30;;;14.80;71.60;;;;;;5036122;28;20041;-74
2021/06/08 05:08:35;;;;;;;2.20;0.95;;;14.90;71.60;;;;;;5035579;28;20116;-74
2021/06/08 05:11:13;;;;;;;0.75;0.75;;;15.00;71.50;;;;;;5036010;28;20022;-73
2021/06/08 05:13:42;;;;;;;1.85;0.90;;;15.00;71.50;;;;;;5035861;28;20099;-73
2021/06/08 05:16:08;;;;;;;1.13;0.90;;;15.10;71.40;;;;;;5035889;28;20026;-73
2021/06/08 05:18:37;;;;;;;1.13;1.00;;;15.20;71.40;;;;;;5035856;28;20048;-73
2021/06/08 05:21:05;;;;;;;0.70;0.70;;;15.20;71.30;;;;;;5018090;28;20075;-74
2021/06/08 05:23:33;;;;;;;0.75;0.60;;;15.30;71.30;;;;;;5017478;28;20485;-73
2021/06/08 05:25:59;;;;;;;1.02;0.93;;;15.30;71.30;;;;;;5017601;28;20494;-74
2021/06/08 05:28:26;;;;;;;0.60;0.60;;;15.40;71.30;;;;;;5035575;28;20029;-74
2021/06/08 05:30:52;;;;;;;0.70;0.70;;;15.40;71.10;;;;;;5017869;28;20076;-74
2021/06/08 05:33:22;;;;;;;0.82;0.68;;;15.50;71.10;;;;;;5035363;28;20029;-74
2021/06/08 05:35:52;;;;;;;0.70;0.68;;;15.50;71.10;;;;;;5035895;28;20024;-73
2021/06/08 05:38:27;;;;;;;0.57;0.57;;;15.60;71.20;;;;;;5035126;28;20084;-73
2021/06/08 05:40:53;;;;;;;1.77;0.70;;;15.60;71.10;;;;;;5035458;28;20076;-74
2021/06/08 05:43:18;;;;;;;0.30;0.30;;;15.70;71.00;;;;;;5035466;28;20021;-74
2021/06/08 05:45:45;;;;;;;0.70;0.70;;;15.90;70.90;;;;;;5035243;28;20025;-74
2021/06/08 05:48:13;;;;;;;0.50;0.50;;;15.90;70.70;;;;;;5016145;28;20033;-76
2021/06/08 05:50:39;;;;;;;0.70;0.70;;;16.00;70.70;;;;;;5035272;28;20026;-74
2021/06/08 05:53:05;;;;;;;0.60;0.60;;;16.20;70.60;;;;;;5034918;28;20021;-73
2021/06/08 05:55:34;;;;;;;1.30;0.80;;;16.30;70.30;;;;;;5035893;28;20091;-73
2021/06/08 05:58:00;;;;;;;;;;;16.40;70.20;;;;;;5036408;28;20474;-73
2021/06/08 06:00:27;;;;;;;0.55;0.55;;;16.50;70.10;;;;;;5036445;28;19912;-74
2021/06/08 06:02:53;;;;;;;0.55;0.40;;;16.50;70.10;;;;;;5035173;28;20045;-73
2021/06/08 06:05:19;;;;;;;0.30;0.30;;;16.60;70.00;;;;;;5034991;28;20480;-73
2021/06/08 06:07:45;;;;;;;0.40;0.40;;;16.70;69.80;;;;;;5034497;28;20029;-75
2021/06/08 06:10:14;;;;;;;0.22;0.22;;;16.80;69.70;;;;;;5034844;28;20037;-75
2021/06/08 06:12:41;;;;;;;0.50;0.50;;;16.90;69.70;;;;;;5034844;28;20029;-74
2021/06/08 06:15:08;;;;;;;0.88;0.43;;;17.00;69.70;;;;;;5017137;28;20024;-73
2021/06/08 06:17:46;;;;;;;0.40;0.40;;;17.10;69.60;;;;;;5034676;28;20040;-74
2021/06/08 06:20:14;;;;;;;0.47;0.47;;;17.30;69.50;;;;;;5034777;28;20021;-75
2021/06/08 06:22:44;;;;;;;0.30;0.30;;;17.40;69.30;;;;;;5034160;28;20104;-74
2021/06/08 06:25:14;;;;;;;0.50;0.50;;;17.50;69.20;;;;;;5032366;28;20052;-74
2021/06/08 06:27:41;;;;;;;0.38;0.38;;;17.60;69.10;;;;;;5034404;28;20041;-75
2021/06/08 06:30:09;;;;;;;0.30;0.30;;;17.70;69.00;;;;;;5034461;28;20025;-75
2021/06/08 06:32:37;;;;;;;0.40;0.40;;;17.80;69.00;;;;;;5034406;28;20188;-76
2021/06/08 06:35:05;;;;;;;0.47;0.47;;;17.80;68.90;;;;;;5016507;28;20068;-75
2021/06/08 06:37:31;;;;;;;0.90;0.63;;;17.90;69.10;;;;;;5016092;28;20028;-74
2021/06/08 06:39:58;;;;;;;0.60;0.60;;;18.00;69.10;;;;;;5034304;28;20444;-74
2021/06/08 06:42:27;;;;;;;0.50;0.50;;;18.00;69.10;;;;;;5016594;28;20060;-76
2021/06/08 06:44:58;;;;;;;0.40;0.40;;;18.10;69.00;;;;;;5034311;28;20382;-73
2021/06/08 06:47:23;;;;;;;0.50;0.47;;;18.20;68.80;;;;;;5034082;28;20063;-74
2021/06/08 06:49:49;;;;;;;0.40;0.40;;;18.30;68.70;;;;;;5033573;28;20475;-79
2021/06/08 06:52:17;;;;;;;0.50;0.50;;;18.40;68.50;;;;;;5034097;28;20497;-74
2021/06/08 06:54:43;;;;;;;0.47;0.47;;;18.50;68.40;;;;;;5034033;28;20024;-75
2021/06/08 06:57:09;;;;;;;0.38;0.38;;;18.60;68.40;;;;;;5034154;28;20048;-74
2021/06/08 06:59:35;;;;;;;0.57;0.57;;;18.50;68.30;;;;;;5033581;28;20079;-74
2021/06/08 07:02:02;;;;;;;0.57;0.50;;;18.60;68.30;;;;;;5033912;28;20104;-75
2021/06/08 07:04:28;;;;;;;0.45;0.45;;;18.70;68.20;;;;;;5033469;28;20076;-75
2021/06/08 07:06:54;;;;;;;0.45;0.45;;;18.80;68.10;;;;;;5033765;28;20041;-76
2021/06/08 07:09:25;;;;;;;1.20;1.05;;;18.90;68.00;;;;;;5016089;28;20048;-73
2021/06/08 07:11:52;;;;;;;0.60;0.60;;;18.90;67.70;;;;;;5033692;28;20100;-72
2021/06/08 07:14:19;;;;;;;0.80;0.80;;;19.00;67.90;;;;;;5033694;28;20032;-73
2021/06/08 07:16:46;;;;;;;0.60;0.60;;;19.10;67.80;;;;;;5034038;28;20029;-73
2021/06/08 07:19:13;;;;;;;0.55;0.55;;;19.20;67.60;;;;;;5033152;28;20524;-74
2021/06/08 07:21:42;;;;;;;0.45;0.45;;;19.30;67.50;;;;;;5015749;28;20025;-74
2021/06/08 07:24:10;;;;;;;0.50;0.50;;;19.40;67.50;;;;;;5033534;28;20045;-75
2021/06/08 07:26:37;;;;;;;0.50;0.50;;;19.50;67.40;;;;;;5033072;28;20295;-74
2021/06/08 07:29:04;;;;;;;0.40;0.40;;;19.50;67.30;;;;;;5033620;28;20453;-73
2021/06/08 07:31:53;;;;;;;1.00;1.00;;;19.60;67.20;;;;;;5033482;28;20014;-73
2021/06/08 07:34:41;;;;;;;0.40;0.40;;;19.60;67.10;;;;;;5032921;28;20121;-73
2021/06/08 07:37:13;;;;;;;1.00;0.88;;;19.60;67.10;;;;;;5033323;28;20045;-74
2021/06/08 07:39:49;;;;;;;0.52;0.52;;;19.60;67.20;;;;;;5033315;28;20032;-74
2021/06/08 07:42:19;;;;;;;0.50;0.50;;;19.70;67.30;;;;;;5033310;28;20101;-74
2021/06/08 07:44:50;;;;;;;0.57;0.57;;;19.80;67.10;;;;;;5033017;28;20033;-74
2021/06/08 07:47:17;;;;;;;0.60;0.60;;;19.80;66.90;;;;;;5033228;28;20039;-74
2021/06/08 07:49:45;;;;;;;0.47;0.43;;;19.90;66.90;;;;;;5015003;28;20024;-73
2021/06/08 07:52:15;;;;;;;0.57;0.57;;;19.90;66.80;;;;;;5033275;28;20104;-73
2021/06/08 07:54:41;;;;;;;0.60;0.60;;;20.10;66.70;;;;;;5033082;28;20102;-73
2021/06/08 07:57:07;;;;;;;0.40;0.40;;;20.20;66.70;;;;;;5033066;28;20049;-73
2021/06/08 07:59:34;;;;;;;0.93;0.93;;;20.30;66.50;;;;;;5033111;28;20068;-74
2021/06/08 08:01:59;;;;;;;0.45;0.45;;;20.30;66.40;;;;;;5032995;28;20024;-74
2021/06/08 08:04:25;;;;;;;0.75;0.70;;;20.50;66.30;;;;;;5032491;28;20381;-74
2021/06/08 08:06:52;;;;;;;0.75;0.75;;;20.60;66.00;;;;;;5032823;28;20428;-74
2021/06/08 08:09:19;;;;;;;0.45;0.45;;;20.70;66.10;;;;;;5032843;28;20029;-73
2021/06/08 08:11:52;;;;;;;0.40;0.40;;;20.70;66.00;;;;;;5034911;28;20029;-73
2021/06/08 08:14:22;;;;;;;0.38;0.38;;;20.80;66.00;;;;;;5037051;28;20021;-73
2021/06/08 08:16:52;;;;;;;0.60;0.60;;;20.80;66.00;;;;;;5036970;28;20112;-74
2021/06/08 08:19:19;;;;;;;0.40;0.40;;;20.90;65.90;;;;;;5037023;28;20018;-73
2021/06/08 08:21:45;;;;;;;0.65;0.65;;;21.00;65.80;;;;;;5036849;28;20064;-74
2021/06/08 08:24:11;;;;;;;0.32;0.32;;;21.00;65.80;;;;;;5036777;28;20026;-73
2021/06/08 08:26:38;;;;;;;0.60;0.60;;;21.00;65.80;;;;;;5036835;28;20079;-73
2021/06/08 08:29:04;;;;;;;0.60;0.60;;;21.10;65.90;;;;;;5036756;28;20029;-73
2021/06/08 08:31:31;;;;;;;0.85;0.85;;;21.10;65.90;;;;;;5036200;28;20485;-74
2021/06/08 08:33:58;;;;;;;0.70;0.57;;;21.10;65.90;;;;;;5036744;28;20053;-79
2021/06/08 08:36:28;;;;;;;0.65;0.65;;;21.20;65.90;;;;;;5036598;28;20033;-78
2021/06/08 08:38:53;;;;;;;0.60;0.60;;;21.20;65.80;;;;;;5036577;28;20036;-79
2021/06/08 08:41:20;;;;;;;0.60;0.60;;;21.40;65.60;;;;;;5036735;28;20018;-73
2021/06/08 08:43:48;;;;;;;0.55;0.55;;;21.50;65.40;;;;;;5036608;28;20104;-73
2021/06/08 08:46:14;;;;;;;0.40;0.40;;;21.60;65.30;;;;;;5035775;28;20079;-72
2021/06/08 08:48:41;;;;;;;0.52;0.52;;;21.60;65.20;;;;;;5036551;28;20028;-71
2021/06/08 08:51:11;;;;;;;0.55;0.55;;;21.70;65.20;;;;;;5036377;28;20036;-72
2021/06/08 08:53:37;;;;;;;0.75;0.65;;;21.80;65.30;;;;;;5036408;28;20167;-73
2021/06/08 08:56:04;;;;;;;0.50;0.50;;;21.90;65.20;;;;;;5036127;28;20462;-72
2021/06/08 08:58:29;;;;;;;0.70;0.70;;;22.00;65.10;;;;;;5036392;28;20113;-72
2021/06/08 09:00:59;;;;;;;0.40;0.40;;;22.00;65.10;;;;;;5018254;28;20120;-72
2021/06/08 09:03:25;;;;;;;0.73;0.73;;;22.00;65.20;;;;;;5036268;28;20143;-72
2021/06/08 09:05:56;;;;;;;0.57;0.55;;;22.00;65.20;;;;;;5036379;28;20458;-72
2021/06/08 09:08:23;;;;;;;0.93;0.82;;;22.10;65.20;;;;;;5036069;28;20029;-73
2021/06/08 09:10:50;;;;;;;0.90;0.70;;;22.20;65.20;;;;;;5035985;28;20091;-72
2021/06/08 09:13:16;;;;;;;1.45;0.70;;;22.20;65.10;;;;;;5035994;28;20493;-73
2021/06/08 09:15:42;;;;;;;1.20;0.45;;;22.20;65.10;;;;;;5035532;28;20030;-74
2021/06/08 09:18:08;;;;;;;0.70;0.70;;;22.30;65.20;;;;;;5036030;28;20025;-71
2021/06/08 09:20:34;;;;;;;0.70;0.70;;;22.30;65.20;;;;;;5035887;28;20129;-73
2021/06/08 09:23:06;;;;;;;0.82;0.82;;;22.40;65.10;;;;;;5035442;28;20104;-72
2021/06/08 09:25:34;;;;;;;0.85;0.77;;;22.30;65.00;;;;;;5035644;28;20053;-72
2021/06/08 09:28:15;;;;;;;0.63;0.63;;;22.40;65.00;;;;;;5035462;28;20473;-73
2021/06/08 09:30:40;;;;;;;1.05;0.82;;;22.40;64.90;;;;;;5035409;28;20025;-71
2021/06/08 09:33:24;;;;;;;1.10;1.00;;;22.50;64.80;;;;;;5035430;28;20466;-73
2021/06/08 09:36:01;;;;;;;0.88;0.85;;;22.70;64.60;;;;;;5035502;28;20053;-74
2021/06/08 09:38:39;;;;;;;0.73;0.60;;;22.80;64.40;;;;;;5035439;28;20018;-73
2021/06/08 09:41:26;;;;;;;0.88;0.85;;;23.00;64.20;;;;;;5035345;28;20029;-74
2021/06/08 09:43:52;;;;;;;0.90;0.90;;;23.20;64.00;;;;;;5017143;28;20087;-73
2021/06/08 09:46:18;;;;;;;0.90;0.90;;;23.30;63.90;;;;;;5035273;28;20041;-72
2021/06/08 09:48:56;;;;;;;0.70;0.63;;;23.40;63.80;;;;;;5035245;28;20036;-74
2021/06/08 09:51:23;;;;;;;0.80;0.80;;;23.50;63.70;;;;;;5035385;28;20133;-74
2021/06/08 09:53:50;;;;;;;0.70;0.70;;;23.60;63.60;;;;;;5035249;28;20026;-73
2021/06/08 09:56:17;;;;;;;1.13;0.75;;;23.70;63.40;;;;;;5035109;28;20022;-73
2021/06/08 09:58:49;;;;;;;0.93;0.93;;;23.70;63.50;;;;;;5034738;28;20052;-74
2021/06/08 10:01:27;;;;;;;0.82;0.75;;;23.80;63.60;;;;;;5017159;28;20474;-72
2021/06/08 10:03:58;;;;;;;0.85;0.85;;;23.90;63.40;;;;;;5035239;28;20063;-74
2021/06/08 10:06:26;;;;;;;0.80;0.80;;;24.00;63.40;;;;;;5035031;28;20022;-75
2021/06/08 10:08:59;;;;;;;0.73;0.68;;;24.20;63.10;;;;;;5035347;28;20119;-73
2021/06/08 10:11:31;;;;;;;0.77;0.77;;;24.20;63.00;;;;;;5035390;28;20362;-75
2021/06/08 10:14:19;;;;;;;0.73;0.73;;;24.20;63.10;;;;;;5034726;28;20021;-73
2021/06/08 10:16:58;;;;;;;4.20;1.00;;;24.20;63.00;;;;;;5034696;28;20076;-74
2021/06/08 10:19:27;;;;;;;0.88;0.88;;;24.30;62.90;;;;;;5034731;28;20104;-74
2021/06/08 10:21:54;;;;;;;1.83;0.90;;;24.30;63.00;;;;;;5034721;28;20018;-74
2021/06/08 10:24:27;;;;;;;1.13;0.95;;;24.50;62.90;;;;;;5034170;28;20033;-75
2021/06/08 10:26:56;;;;;;;1.42;1.15;;;24.40;62.90;;;;;;5033778;28;20040;-74
2021/06/08 10:29:30;;;;;;;0.70;0.70;;;24.50;63.00;;;;;;5033096;28;20037;-74
2021/06/08 10:31:59;;;;;;;0.93;0.90;;;24.50;62.90;;;;;;5033546;28;20049;-73
2021/06/08 10:34:28;;;;;;;1.20;1.10;;;24.50;63.00;;;;;;5014854;28;20021;-72
2021/06/08 10:36:56;;;;;;;1.33;1.13;;;24.40;63.00;;;;;;5033551;28;20021;-73
2021/06/08 10:39:25;;;;;;;0.98;0.98;;;24.40;63.10;;;;;;5033293;28;20018;-74
2021/06/08 10:41:51;;;;;;;0.80;0.80;;;24.50;62.90;;;;;;5015041;28;20052;-74
2021/06/08 10:44:19;;;;;;;1.27;1.00;;;24.60;62.60;;;;;;5033414;28;20056;-73
2021/06/08 10:46:50;;;;;;;1.27;1.10;;;24.80;62.40;;;;;;5033228;28;20486;-73
2021/06/08 10:49:16;;;;;;;0.95;0.70;;;25.00;62.30;;;;;;5033310;28;20106;-72
2021/06/08 10:52:11;;;;;;;0.93;0.93;;;25.10;62.10;;;;;;5015318;28;20033;-74
2021/06/08 10:54:45;;;;;;;0.65;0.65;;;25.20;62.00;;;;;;5033402;28;20029;-73
2021/06/08 10:57:14;;;;;;;1.08;0.98;;;25.30;61.90;;;;;;5015090;28;20025;-74
2021/06/08 10:59:50;;;;;;;0.60;0.60;;;25.30;62.10;;;;;;5033004;28;20017;-74
2021/06/08 11:02:45;;;;;;;1.80;0.95;;;25.30;62.20;;;;;;5015422;28;20064;-73
2021/06/08 11:05:11;;;;;;;0.75;0.75;;;25.30;62.10;;;;;;5033031;28;20097;-73
2021/06/08 11:07:42;;;;;;;0.80;0.80;;;25.60;62.00;;;;;;5033046;28;20065;-73
2021/06/08 11:10:26;;;;;;;1.00;0.90;;;25.90;61.50;;;;;;5033044;28;20025;-73
2021/06/08 11:13:07;;;;;;;0.88;0.80;;;26.10;61.10;;;;;;5032223;28;20159;-73
2021/06/08 11:15:37;;;;;;;1.25;1.15;;;26.20;61.00;;;;;;5032874;28;20036;-73
2021/06/08 11:18:34;;;;;;;1.00;0.90;;;26.20;61.10;;;;;;5032942;28;20032;-73
2021/06/08 11:21:03;;;;;;;0.70;0.70;;;26.60;60.90;;;;;;5012034;28;20068;-72
2021/06/08 11:23:31;;;;;;;0.73;0.70;;;26.60;60.60;;;;;;5032785;28;20029;-71
2021/06/08 11:25:57;;;;;;;1.05;0.95;;;26.50;60.70;;;;;;5029748;28;54193;-72
2021/06/08 11:28:38;;;;;;;1.83;1.02;;;26.10;61.10;;;;;;5033271;28;20087;-71
2021/06/08 11:31:04;;;;;;;0.80;0.70;;;25.80;61.60;;;;;;5033566;28;20052;-72
2021/06/08 11:33:38;;;;;;;0.90;0.85;;;25.90;61.60;;;;;;5033413;28;20466;-71
2021/06/08 11:36:28;;;;;;;1.58;1.30;;;25.90;61.10;;;;;;5015648;28;20025;-71
2021/06/08 11:38:56;;;;;;;0.70;0.70;;;25.60;61.20;;;;;;5024383;28;20116;-73
2021/06/08 11:41:25;;;;;;;0.80;0.80;;;25.40;61.70;;;;;;5032837;28;20075;-73
2021/06/08 11:43:58;;;;;;;1.10;1.00;;;25.90;61.00;;;;;;5033349;28;20024;-73
2021/06/08 11:46:32;;;;;;;0.70;0.70;;;26.20;60.00;;;;;;5033196;28;20034;-73
2021/06/08 11:49:12;;;;;;;0.75;0.75;;;26.80;59.10;;;;;;5033226;28;20037;-72
2021/06/08 11:51:46;;;;;;;0.95;0.90;;;27.70;58.00;;;;;;5033018;28;20013;-73
2021/06/08 11:54:27;;;;;;;0.85;0.85;;;27.80;57.60;;;;;;5033208;28;20128;-74
2021/06/08 11:57:00;;;;;;;1.38;1.27;;;28.30;57.10;;;;;;5015452;28;20040;-74
2021/06/08 11:59:44;;;;;;;1.23;1.13;;;28.80;56.60;;;;;;5033348;28;20060;-72
2021/06/08 12:02:25;;;;;;;0.88;0.88;;;28.50;56.70;;;;;;5015152;28;20060;-73
2021/06/08 12:05:14;;;;;;;0.98;0.90;;;27.90;57.80;;;;;;5033081;28;20025;-72
2021/06/08 12:07:49;;;;;;;0.77;0.77;;;27.40;58.80;;;;;;5033029;28;20029;-72
2021/06/08 12:10:34;;;;;;;0.77;0.77;;;27.60;58.50;;;;;;5014487;28;20040;-73
2021/06/08 12:13:00;;;;;;;0.50;0.50;;;28.00;57.70;;;;;;5032989;28;20064;-72
2021/06/08 12:15:38;;;;;;;0.77;0.77;;;28.30;56.90;;;;;;5015238;28;20049;-73
2021/06/08 12:18:14;;;;;;;0.77;0.77;;;28.70;57.00;;;;;;5032919;28;20083;-73
2021/06/08 12:20:45;;;;;;;1.13;1.02;;;29.10;56.30;;;;;;5032833;28;20036;-72
2021/06/08 12:23:23;;;;;;;0.80;0.80;;;29.20;56.40;;;;;;5032992;28;20072;-72
2021/06/08 12:25:48;;;;;;;0.68;0.68;;;29.30;56.30;;;;;;5032724;28;20057;-72
2021/06/08 12:28:14;;;;;;;0.65;0.65;;;29.40;56.30;;;;;;5032629;28;20041;-73
2021/06/08 12:30:40;;;;;;;1.13;1.02;;;29.70;56.00;;;;;;5032982;28;20498;-73
2021/06/08 12:33:06;;;;;;;0.90;0.90;;;30.00;55.90;;;;;;5032773;28;20029;-73
2021/06/08 12:35:42;;;;;;;1.20;1.10;;;30.20;55.60;;;;;;5032783;28;20519;-73
2021/06/08 12:38:15;;;;;;;0.65;0.65;;;30.50;55.30;;;;;;5032342;28;20485;-72
2021/06/08 12:40:42;;;;;;;0.80;0.80;;;30.90;54.80;;;;;;5015110;28;20030;-72
2021/06/08 12:43:07;;;;;;;0.70;0.70;;;30.80;54.50;;;;;;5032715;28;20449;-73
2021/06/08 12:45:34;;;;;;;1.00;1.00;;;30.00;55.30;;;;;;5032677;28;20103;-73
2021/06/08 12:47:59;;;;;;;0.40;0.40;;;29.50;56.30;;;;;;5032476;28;20041;-73
2021/06/08 12:50:34;;;;;;;0.80;0.68;;;29.70;56.10;;;;;;5032539;28;20198;-72
2021/06/08 12:53:02;;;;;;;0.75;0.75;;;30.20;55.30;;;;;;5032116;28;20443;-72
2021/06/08 12:55:29;;;;;;;0.77;0.77;;;30.00;55.20;;;;;;5032659;28;20378;-73
2021/06/08 12:57:58;;;;;;;1.08;0.98;;;29.30;55.90;;;;;;5034566;28;20033;-73
2021/06/08 13:00:26;;;;;;;0.85;0.80;;;28.50;56.90;;;;;;5036195;28;20036;-74